Time;durP1;ratioP1;P1;durP2;ratioP2;P2;SDS_P1;SDS_P2;PMS_P1;PMS_P2;Temp;Humidity;BMP_temperature;BMP_pressure;BME280_temperature;BME280_humidity;BME280_pressure;Samples;Min_cycle;Max_cycle;Signal;HPM_P1;HPM_P2
2021/12/26 00:02:07;;;;;;;4.25;1.58;;;18.70;70.20;;;;;;4948115;28;96459;-55
2021/12/26 00:04:38;;;;;;;2.78;1.55;;;18.70;70.40;;;;;;4953329;28;95327;-52
2021/12/26 00:07:10;;;;;;;4.38;1.83;;;18.70;70.30;;;;;;4948176;28;95933;-55
2021/12/26 00:09:41;;;;;;;3.22;1.40;;;18.60;70.30;;;;;;4966222;28;98092;-52
2021/12/26 00:12:12;;;;;;;;;;;18.60;70.30;;;;;;4963947;28;97568;-55
2021/12/26 00:14:44;;;;;;;2.27;1.03;;;18.70;70.20;;;;;;4958910;28;95915;-54
2021/12/26 00:17:14;;;;;;;4.63;1.33;;;18.70;70.20;;;;;;4965128;28;96041;-58
2021/12/26 00:19:46;;;;;;;2.63;1.33;;;18.70;70.20;;;;;;4960208;28;95817;-53
2021/12/26 00:22:18;;;;;;;7.10;1.48;;;18.70;70.10;;;;;;4952061;28;95520;-54
2021/12/26 00:24:48;;;;;;;;;;;18.70;70.10;;;;;;4956936;28;95613;-52
2021/12/26 00:27:19;;;;;;;6.03;2.45;;;18.70;70.00;;;;;;4961073;28;95392;-51
2021/12/26 00:29:52;;;;;;;3.90;1.65;;;18.70;70.00;;;;;;4963328;28;96024;-56
2021/12/26 00:32:22;;;;;;;4.38;1.90;;;18.70;70.00;;;;;;4978237;28;96132;-54
2021/12/26 00:34:52;;;;;;;5.10;1.70;;;18.80;69.90;;;;;;4965327;28;95684;-53
2021/12/26 00:37:22;;;;;;;5.15;1.92;;;18.70;69.80;;;;;;4969458;28;97060;-55
2021/12/26 00:39:52;;;;;;;5.10;2.00;;;18.70;69.80;;;;;;4954014;28;96436;-56
2021/12/26 00:42:23;;;;;;;6.93;2.00;;;18.70;69.80;;;;;;4966103;28;95753;-54
2021/12/26 00:44:54;;;;;;;4.82;2.25;;;18.70;69.80;;;;;;4965696;28;95985;-55
2021/12/26 00:47:29;;;;;;;4.13;1.65;;;18.70;70.00;;;;;;4960186;28;95767;-57
2021/12/26 00:50:01;;;;;;;6.20;2.05;;;18.80;69.90;;;;;;4966619;28;96163;-53
2021/12/26 00:52:32;;;;;;;3.55;1.35;;;18.70;69.90;;;;;;4959871;28;96146;-53
2021/12/26 00:55:07;;;;;;;3.72;1.40;;;18.80;70.00;;;;;;4955088;28;95835;-57
2021/12/26 00:57:39;;;;;;;6.38;1.55;;;18.80;70.10;;;;;;4967658;28;95818;-54
2021/12/26 01:00:13;;;;;;;3.30;1.70;;;18.80;70.10;;;;;;4966190;28;97935;-56
2021/12/26 01:02:46;;;;;;;3.65;1.65;;;18.80;70.10;;;;;;4956692;28;98366;-55
2021/12/26 01:05:19;;;;;;;3.63;1.75;;;18.80;70.10;;;;;;4961864;28;95226;-54
2021/12/26 01:07:59;;;;;;;9.80;1.90;;;18.80;70.10;;;;;;4969637;28;95455;-53
2021/12/26 01:11:02;;;;;;;4.03;1.77;;;18.80;70.20;;;;;;4996222;28;98656;-52
2021/12/26 01:13:38;;;;;;;5.32;1.77;;;18.80;70.20;;;;;;4962331;28;97845;-55
2021/12/26 01:16:26;;;;;;;4.88;1.50;;;18.90;70.30;;;;;;4967925;28;95898;-53
2021/12/26 01:19:09;;;;;;;1.88;1.02;;;18.90;70.10;;;;;;4960873;28;95757;-55
2021/12/26 01:21:41;;;;;;;4.35;1.55;;;18.90;70.10;;;;;;4962589;28;96361;-56
2021/12/26 01:24:15;;;;;;;3.55;1.08;;;18.90;70.10;;;;;;4959231;28;95763;-57
2021/12/26 01:26:45;;;;;;;4.67;1.43;;;18.90;70.00;;;;;;4962168;28;95750;-52
2021/12/26 01:29:27;;;;;;;3.05;1.25;;;18.90;70.10;;;;;;4966786;28;95579;-55
2021/12/26 01:31:57;;;;;;;2.57;1.00;;;18.90;69.90;;;;;;4959566;28;96266;-55
2021/12/26 01:35:06;;;;;;;2.58;1.20;;;19.00;69.90;;;;;;4953876;28;95740;-56
2021/12/26 01:37:55;;;;;;;2.22;1.20;;;19.00;69.90;;;;;;4958081;28;95642;-54
2021/12/26 01:40:50;;;;;;;2.40;0.80;;;19.00;70.00;;;;;;4952815;28;95741;-55
2021/12/26 01:43:46;;;;;;;2.50;1.38;;;19.00;69.90;;;;;;4945556;28;95949;-56
2021/12/26 01:46:33;;;;;;;1.95;1.30;;;19.00;70.00;;;;;;4954645;28;96718;-56
2021/12/26 01:49:08;;;;;;;3.93;1.50;;;19.00;69.90;;;;;;4946868;28;96003;-53
2021/12/26 01:51:41;;;;;;;2.72;1.23;;;19.00;70.00;;;;;;4949155;28;95366;-52
2021/12/26 01:54:15;;;;;;;2.33;1.17;;;19.10;70.00;;;;;;4946777;28;98232;-57
2021/12/26 01:56:47;;;;;;;3.03;1.10;;;19.00;69.90;;;;;;4943953;28;95820;-54
2021/12/26 01:59:17;;;;;;;1.33;0.93;;;19.00;69.90;;;;;;4940777;28;96115;-55
2021/12/26 02:01:59;;;;;;;3.42;1.23;;;19.10;69.80;;;;;;4954701;28;97825;-54
2021/12/26 02:04:32;;;;;;;2.78;1.13;;;19.00;69.90;;;;;;4947413;28;96766;-53
2021/12/26 02:07:07;;;;;;;5.22;1.50;;;19.00;69.80;;;;;;4961834;28;95585;-54
2021/12/26 02:09:41;;;;;;;1.50;0.73;;;19.10;69.90;;;;;;4944817;28;95518;-57
2021/12/26 02:12:17;;;;;;;2.10;1.08;;;19.10;69.70;;;;;;4945473;28;95691;-55
2021/12/26 02:14:50;;;;;;;2.05;1.00;;;19.10;69.80;;;;;;4936989;28;98008;-57
2021/12/26 02:17:21;;;;;;;5.32;1.30;;;19.10;69.70;;;;;;4933418;28;96023;-55
2021/12/26 02:19:57;;;;;;;4.40;1.58;;;19.10;69.80;;;;;;4959986;28;95926;-57
2021/12/26 02:22:31;;;;;;;2.63;0.98;;;19.10;69.80;;;;;;4946550;28;95659;-53
2021/12/26 02:25:28;;;;;;;2.63;1.08;;;19.10;69.70;;;;;;4960188;28;98622;-52
2021/12/26 02:28:00;;;;;;;4.18;1.17;;;19.10;70.30;;;;;;4943337;28;95780;-58
2021/12/26 02:30:30;;;;;;;4.13;1.30;;;19.10;69.60;;;;;;4927259;28;95690;-55
2021/12/26 02:33:03;;;;;;;4.22;1.02;;;19.10;69.70;;;;;;4965916;28;95969;-57
2021/12/26 02:35:35;;;;;;;3.97;1.27;;;19.10;69.60;;;;;;4977076;28;98045;-53
2021/12/26 02:38:06;;;;;;;3.58;1.15;;;19.10;69.60;;;;;;4960146;28;95607;-54
2021/12/26 02:40:37;;;;;;;4.63;1.17;;;19.10;69.60;;;;;;4956391;28;95807;-56
2021/12/26 02:43:08;;;;;;;2.58;1.05;;;19.10;69.60;;;;;;4962297;28;96073;-50
2021/12/26 02:45:40;;;;;;;2.33;1.25;;;19.10;69.60;;;;;;4946938;28;98108;-54
2021/12/26 02:48:11;;;;;;;3.75;1.30;;;19.10;69.50;;;;;;4959184;28;96145;-56
2021/12/26 02:50:45;;;;;;;4.20;1.35;;;19.10;69.50;;;;;;4966930;28;98178;-56
2021/12/26 02:53:20;;;;;;;4.07;1.58;;;19.10;69.50;;;;;;4961609;28;95956;-58
2021/12/26 02:55:54;;;;;;;2.22;0.80;;;19.10;69.50;;;;;;4950878;28;97333;-53
2021/12/26 02:58:24;;;;;;;2.22;1.00;;;19.20;69.40;;;;;;4963097;28;98119;-56
2021/12/26 03:01:15;;;;;;;;;;;19.10;69.40;;;;;;4958924;28;95311;-52
2021/12/26 03:03:49;;;;;;;3.65;1.25;;;19.20;69.30;;;;;;4961933;28;96277;-53
2021/12/26 03:06:31;;;;;;;1.75;0.85;;;19.20;69.50;;;;;;4953166;28;97950;-54
2021/12/26 03:09:05;;;;;;;4.10;1.25;;;19.20;69.40;;;;;;4963585;28;97190;-54
2021/12/26 03:11:38;;;;;;;2.83;1.15;;;19.10;69.40;;;;;;4951872;28;95807;-54
2021/12/26 03:14:09;;;;;;;3.47;1.00;;;19.20;69.30;;;;;;4957631;28;95635;-55
2021/12/26 03:16:50;;;;;;;3.47;1.10;;;19.10;69.30;;;;;;4944580;28;98005;-56
2021/12/26 03:19:25;;;;;;;3.00;1.27;;;19.20;69.20;;;;;;4957797;28;95721;-57
2021/12/26 03:21:55;;;;;;;2.25;1.25;;;19.20;69.40;;;;;;4955399;28;95986;-55
2021/12/26 03:24:25;;;;;;;2.08;0.93;;;19.10;69.20;;;;;;4967241;28;95421;-53
2021/12/26 03:27:04;;;;;;;;;;;19.10;69.20;;;;;;4961670;28;96263;-53
2021/12/26 03:29:36;;;;;;;3.67;1.35;;;19.20;69.20;;;;;;4957326;28;96187;-53
2021/12/26 03:32:12;;;;;;;1.50;0.90;;;19.10;69.30;;;;;;4954528;28;96164;-54
2021/12/26 03:34:50;;;;;;;2.45;1.20;;;19.20;69.20;;;;;;4962880;28;95416;-55
2021/12/26 03:37:23;;;;;;;2.53;1.45;;;19.20;69.20;;;;;;4963551;28;96071;-54
2021/12/26 03:39:53;;;;;;;3.53;1.25;;;19.20;69.20;;;;;;4946306;28;95983;-56
2021/12/26 03:42:24;;;;;;;4.82;0.95;;;19.20;69.10;;;;;;4965597;28;95773;-55
2021/12/26 03:44:56;;;;;;;1.60;0.93;;;19.20;69.20;;;;;;4979357;28;95952;-53
2021/12/26 03:47:26;;;;;;;1.40;0.77;;;19.20;69.10;;;;;;4958695;28;98466;-56
2021/12/26 03:49:57;;;;;;;1.95;0.80;;;19.20;69.10;;;;;;4949824;28;98036;-53
2021/12/26 03:52:28;;;;;;;1.75;0.80;;;19.20;68.90;;;;;;4947391;28;97342;-58
2021/12/26 03:55:00;;;;;;;2.15;0.90;;;19.20;69.30;;;;;;4983632;28;95745;-56
2021/12/26 03:57:31;;;;;;;4.15;0.82;;;19.20;68.80;;;;;;4950222;28;96156;-55
2021/12/26 04:00:03;;;;;;;2.42;0.80;;;19.20;68.80;;;;;;4966966;28;97258;-55
2021/12/26 04:02:43;;;;;;;2.17;1.15;;;19.20;68.90;;;;;;4944461;28;95535;-56
2021/12/26 04:05:16;;;;;;;3.55;1.17;;;19.20;68.80;;;;;;4960278;28;95776;-58
2021/12/26 04:07:48;;;;;;;1.83;0.90;;;19.20;68.70;;;;;;4965808;28;96153;-51
2021/12/26 04:10:24;;;;;;;3.45;1.20;;;19.20;68.70;;;;;;4966030;28;95535;-51
2021/12/26 04:12:57;;;;;;;4.60;1.90;;;19.20;68.50;;;;;;4960061;28;95336;-53
2021/12/26 04:15:31;;;;;;;3.13;1.33;;;19.20;68.40;;;;;;4947996;27;96018;-54
2021/12/26 04:18:02;;;;;;;4.63;2.13;;;19.20;68.20;;;;;;4958991;28;96322;-55
2021/12/26 04:20:36;;;;;;;4.10;1.63;;;19.20;68.20;;;;;;4968797;28;99547;-54
2021/12/26 04:23:06;;;;;;;6.30;2.08;;;19.20;68.10;;;;;;4965276;28;95831;-58
2021/12/26 04:25:36;;;;;;;4.93;1.92;;;19.20;68.00;;;;;;4969015;28;95919;-52
2021/12/26 04:28:06;;;;;;;7.57;2.22;;;19.20;68.10;;;;;;4966362;28;96053;-54
2021/12/26 04:30:37;;;;;;;4.53;1.17;;;19.20;67.80;;;;;;4961377;28;97465;-57
2021/12/26 04:33:08;;;;;;;4.53;1.67;;;19.10;67.70;;;;;;4956581;28;95722;-56
2021/12/26 04:35:41;;;;;;;3.63;1.38;;;19.20;67.60;;;;;;4960881;28;98123;-57
2021/12/26 04:38:12;;;;;;;4.63;1.98;;;19.20;67.50;;;;;;4966421;28;98014;-56
2021/12/26 04:40:42;;;;;;;6.63;1.93;;;19.20;67.40;;;;;;4963871;28;95787;-54
2021/12/26 04:43:35;;;;;;;2.53;1.63;;;19.20;67.30;;;;;;4952943;28;95964;-53
2021/12/26 04:46:22;;;;;;;4.60;1.95;;;19.20;67.10;;;;;;4959512;28;95606;-58
2021/12/26 04:49:02;;;;;;;4.72;1.77;;;19.30;67.20;;;;;;4966952;28;96597;-57
2021/12/26 04:51:34;;;;;;;3.38;1.38;;;19.20;67.20;;;;;;4968279;28;95739;-55
2021/12/26 04:54:07;;;;;;;3.97;1.73;;;19.30;67.20;;;;;;4964720;28;95797;-54
2021/12/26 04:56:39;;;;;;;4.82;1.83;;;19.30;66.90;;;;;;4954874;28;95957;-57
2021/12/26 04:59:09;;;;;;;;;;;19.30;66.80;;;;;;4990098;28;98026;-53
2021/12/26 05:01:41;;;;;;;4.90;1.92;;;19.30;66.80;;;;;;4945437;28;95967;-56
2021/12/26 05:04:14;;;;;;;9.95;2.25;;;19.30;66.60;;;;;;4967626;28;95689;-53
2021/12/26 05:06:49;;;;;;;7.53;2.35;;;19.30;66.30;;;;;;4956887;28;95408;-53
2021/12/26 05:09:20;;;;;;;4.15;1.73;;;19.30;66.10;;;;;;4962774;28;96869;-55
2021/12/26 05:11:53;;;;;;;4.28;1.52;;;19.20;65.90;;;;;;4965228;28;97857;-54
2021/12/26 05:14:24;;;;;;;5.15;2.35;;;19.20;66.10;;;;;;4958861;28;95765;-53
2021/12/26 05:16:55;;;;;;;8.55;2.45;;;19.30;66.10;;;;;;4945905;28;97739;-52
2021/12/26 05:19:27;;;;;;;6.22;2.05;;;19.30;66.10;;;;;;4962700;28;98085;-57
2021/12/26 05:21:57;;;;;;;5.20;1.55;;;19.30;65.90;;;;;;4967575;28;97815;-58
2021/12/26 05:24:30;;;;;;;4.72;1.55;;;19.30;65.80;;;;;;4968714;28;95997;-56
2021/12/26 05:27:04;;;;;;;8.00;1.77;;;19.40;65.90;;;;;;4984310;28;95696;-54
2021/12/26 05:29:34;;;;;;;3.63;1.60;;;19.30;65.50;;;;;;4963779;28;96913;-56
2021/12/26 05:32:04;;;;;;;3.65;1.35;;;19.40;65.50;;;;;;4947362;28;95505;-51
2021/12/26 05:34:35;;;;;;;4.68;1.83;;;19.30;65.30;;;;;;4967108;28;95702;-54
2021/12/26 05:37:05;;;;;;;5.97;1.93;;;19.30;65.40;;;;;;4964328;28;95823;-56
2021/12/26 05:39:36;;;;;;;5.82;2.05;;;19.40;65.30;;;;;;4957323;28;96316;-53
2021/12/26 05:42:10;;;;;;;;;;;19.40;65.10;;;;;;4967325;28;95902;-54
2021/12/26 05:44:44;;;;;;;5.30;1.77;;;19.40;65.00;;;;;;4990884;28;95953;-53
2021/12/26 05:47:17;;;;;;;5.15;1.42;;;19.40;64.90;;;;;;4953633;28;95933;-57
2021/12/26 05:50:00;;;;;;;6.03;1.90;;;19.40;65.00;;;;;;4942396;28;96441;-53
2021/12/26 05:52:31;;;;;;;4.10;1.75;;;19.40;65.00;;;;;;4965681;28;96548;-57
2021/12/26 05:55:17;;;;;;;7.07;1.45;;;19.40;64.80;;;;;;4968281;28;97231;-54
2021/12/26 05:57:50;;;;;;;5.57;1.35;;;19.40;64.80;;;;;;4951790;28;95895;-52
2021/12/26 06:00:21;;;;;;;4.05;1.38;;;19.40;64.70;;;;;;4953127;28;96131;-54
2021/12/26 06:02:57;;;;;;;2.15;1.05;;;19.40;64.90;;;;;;4975260;28;95824;-56
2021/12/26 06:05:30;;;;;;;5.18;2.20;;;19.40;64.80;;;;;;4966364;28;95369;-54
2021/12/26 06:08:03;;;;;;;5.25;1.73;;;19.40;64.80;;;;;;4954178;28;95697;-56
2021/12/26 06:10:38;;;;;;;4.05;1.60;;;19.40;64.80;;;;;;4964296;28;96620;-56
2021/12/26 06:13:08;;;;;;;3.72;1.88;;;19.40;64.70;;;;;;4968042;28;96070;-53
2021/12/26 06:15:41;;;;;;;8.80;1.88;;;19.40;64.80;;;;;;4962245;28;95563;-57
2021/12/26 06:18:13;;;;;;;5.30;1.52;;;19.50;64.90;;;;;;4964999;28;95397;-53
2021/12/26 06:21:12;;;;;;;;;;;19.50;64.80;;;;;;4964043;28;95999;-57
2021/12/26 06:23:50;;;;;;;6.53;2.22;;;19.50;64.70;;;;;;4968254;28;95682;-53
2021/12/26 06:26:33;;;;;;;2.13;1.40;;;19.50;64.40;;;;;;4951930;28;95566;-54
2021/12/26 06:29:11;;;;;;;2.42;1.30;;;19.50;64.20;;;;;;4959393;28;95965;-54
2021/12/26 06:31:42;;;;;;;4.20;1.52;;;19.50;64.30;;;;;;4959902;27;95876;-57
2021/12/26 06:34:31;;;;;;;3.67;1.88;;;19.60;64.40;;;;;;4960335;28;95944;-51
2021/12/26 06:37:20;;;;;;;4.60;1.50;;;19.50;64.10;;;;;;4948488;28;95702;-54
2021/12/26 06:40:11;;;;;;;2.83;1.45;;;19.60;64.00;;;;;;4952331;28;95716;-57
2021/12/26 06:43:02;;;;;;;3.75;1.75;;;19.60;64.10;;;;;;4960014;28;96539;-58
2021/12/26 06:45:53;;;;;;;7.40;1.85;;;19.60;64.20;;;;;;4953659;28;95702;-57
2021/12/26 06:48:41;;;;;;;4.13;1.48;;;19.60;64.10;;;;;;4949960;28;96020;-57
2021/12/26 06:51:12;;;;;;;3.37;1.33;;;19.60;64.10;;;;;;4964590;28;96102;-56
2021/12/26 06:53:43;;;;;;;5.97;1.97;;;19.50;64.10;;;;;;4948615;28;96981;-53
2021/12/26 06:56:16;;;;;;;4.32;2.00;;;19.60;64.00;;;;;;4964295;28;97638;-57
2021/12/26 06:58:47;;;;;;;6.65;1.95;;;19.60;64.10;;;;;;4963623;28;96381;-57
2021/12/26 07:01:17;;;;;;;3.63;1.45;;;19.60;64.00;;;;;;4948503;28;95292;-56
2021/12/26 07:03:53;;;;;;;3.33;1.50;;;19.60;64.20;;;;;;4964543;28;96684;-57
2021/12/26 07:06:27;;;;;;;4.68;1.55;;;19.60;64.00;;;;;;4963220;28;97894;-56
2021/12/26 07:09:06;;;;;;;4.38;1.80;;;19.60;64.00;;;;;;4966560;28;98078;-58
2021/12/26 07:11:38;;;;;;;3.53;1.50;;;19.60;64.00;;;;;;4970192;28;95489;-56
2021/12/26 07:14:16;;;;;;;5.47;1.83;;;19.60;64.00;;;;;;4959820;28;96334;-54
2021/12/26 07:16:46;;;;;;;6.25;1.33;;;19.60;63.80;;;;;;4944641;28;95961;-57
2021/12/26 07:19:18;;;;;;;10.60;2.08;;;19.60;63.80;;;;;;4959683;28;95964;-57
2021/12/26 07:21:49;;;;;;;6.93;1.63;;;19.60;63.60;;;;;;4968274;28;96418;-56
2021/12/26 07:24:19;;;;;;;4.97;1.63;;;19.60;63.70;;;;;;4974079;28;98782;-53
2021/12/26 07:26:50;;;;;;;6.13;2.35;;;19.60;63.70;;;;;;4971989;28;96308;-55
2021/12/26 07:29:58;;;;;;;6.95;1.90;;;19.60;63.70;;;;;;4906299;28;96154;-56
2021/12/26 07:32:31;;;;;;;3.55;1.83;;;19.60;63.60;;;;;;4960882;27;96167;-57
2021/12/26 07:35:02;;;;;;;;;;;19.60;63.50;;;;;;5013549;28;96503;-57
2021/12/26 07:37:32;;;;;;;5.75;2.10;;;19.60;63.40;;;;;;4990108;28;97772;-56
2021/12/26 07:40:03;;;;;;;5.23;1.87;;;19.60;63.40;;;;;;4993851;28;95563;-57
2021/12/26 07:42:36;;;;;;;5.55;2.05;;;19.70;63.40;;;;;;4980535;28;96117;-56
2021/12/26 07:45:27;;;;;;;5.35;1.90;;;19.70;63.30;;;;;;4987491;28;95763;-54
2021/12/26 07:48:01;;;;;;;2.90;1.42;;;19.60;62.90;;;;;;4953746;28;102046;-57
2021/12/26 07:50:32;;;;;;;5.05;2.05;;;19.70;62.90;;;;;;4984206;28;95821;-54
2021/12/26 07:53:23;;;;;;;6.72;2.22;;;19.60;62.80;;;;;;4970623;28;95346;-57
2021/12/26 07:56:14;;;;;;;6.70;2.22;;;19.70;62.80;;;;;;4975044;28;96496;-57
2021/12/26 07:59:02;;;;;;;4.82;1.60;;;19.70;62.70;;;;;;4972263;28;95747;-55
2021/12/26 08:01:56;;;;;;;4.15;1.70;;;19.60;62.50;;;;;;4983959;27;95600;-56
2021/12/26 08:05:00;;;;;;;5.55;2.08;;;19.60;62.40;;;;;;4966505;28;96264;-53
2021/12/26 08:07:46;;;;;;;4.95;1.63;;;19.70;62.40;;;;;;4987485;28;96511;-54
2021/12/26 08:10:19;;;;;;;6.05;1.50;;;19.60;62.20;;;;;;4991943;28;97018;-57
2021/12/26 08:12:51;;;;;;;7.97;2.05;;;19.60;62.10;;;;;;4987615;28;95686;-56
2021/12/26 08:15:21;;;;;;;6.72;1.70;;;19.60;62.10;;;;;;4979539;28;96137;-54
2021/12/26 08:17:51;;;;;;;9.90;2.45;;;19.60;62.20;;;;;;4995996;28;95852;-55
2021/12/26 08:20:24;;;;;;;7.68;2.25;;;19.60;62.10;;;;;;5006063;28;96114;-57
2021/12/26 08:22:57;;;;;;;7.00;2.00;;;19.60;62.00;;;;;;4995294;28;95617;-53
2021/12/26 08:25:30;;;;;;;10.98;2.45;;;19.60;61.90;;;;;;4995450;28;95752;-55
2021/12/26 08:28:00;;;;;;;10.70;2.80;;;19.60;61.90;;;;;;4994196;28;95471;-54
2021/12/26 08:30:30;;;;;;;9.35;2.33;;;19.50;61.90;;;;;;4989711;27;95915;-56
2021/12/26 08:33:05;;;;;;;6.15;2.40;;;19.60;61.90;;;;;;5004015;28;95771;-55
2021/12/26 08:35:36;;;;;;;6.80;1.92;;;19.50;61.90;;;;;;4993092;28;95765;-57
2021/12/26 08:38:06;;;;;;;6.93;2.50;;;19.50;61.90;;;;;;4997502;28;96102;-53
2021/12/26 08:40:37;;;;;;;10.27;2.30;;;19.50;61.80;;;;;;4984954;28;95812;-54
2021/12/26 08:43:10;;;;;;;7.25;2.00;;;19.50;61.90;;;;;;4994128;28;95803;-53
2021/12/26 08:45:41;;;;;;;7.88;2.25;;;19.50;61.80;;;;;;4992591;28;95823;-58
2021/12/26 08:48:12;;;;;;;9.82;2.55;;;19.50;61.80;;;;;;4993253;28;97884;-54
2021/12/26 08:50:43;;;;;;;8.05;2.30;;;19.50;61.70;;;;;;4995148;28;96019;-51
2021/12/26 08:53:14;;;;;;;7.47;2.15;;;19.50;61.90;;;;;;4993430;28;95500;-56
2021/12/26 08:55:45;;;;;;;10.50;2.53;;;19.40;61.70;;;;;;5002394;28;95924;-54
2021/12/26 08:58:16;;;;;;;;;;;19.50;61.50;;;;;;5011798;28;96858;-53
2021/12/26 09:00:47;;;;;;;8.13;3.22;;;19.40;61.40;;;;;;4984414;28;95415;-55
2021/12/26 09:03:18;;;;;;;7.30;2.20;;;19.40;61.50;;;;;;4993451;28;95443;-56
2021/12/26 09:05:51;;;;;;;9.20;3.25;;;19.40;61.40;;;;;;5004260;28;95366;-53
2021/12/26 09:08:23;;;;;;;9.77;2.63;;;19.40;61.30;;;;;;5011494;28;97880;-51
2021/12/26 09:10:56;;;;;;;7.03;2.70;;;19.40;61.40;;;;;;5004021;28;95556;-57
2021/12/26 09:13:28;;;;;;;10.02;2.60;;;19.40;61.40;;;;;;4996009;28;95781;-56
2021/12/26 09:16:01;;;;;;;9.98;2.33;;;19.40;61.30;;;;;;4989720;28;95713;-54
2021/12/26 09:18:33;;;;;;;13.73;3.13;;;19.30;61.30;;;;;;4991311;28;95871;-56
2021/12/26 09:21:06;;;;;;;7.53;2.42;;;19.30;61.20;;;;;;5003364;28;96133;-53
2021/12/26 09:23:37;;;;;;;8.98;2.55;;;19.30;61.10;;;;;;5002225;28;95710;-58
2021/12/26 09:26:08;;;;;;;10.43;2.47;;;19.30;61.10;;;;;;4999176;28;95218;-58
2021/12/26 09:28:38;;;;;;;7.82;2.13;;;19.30;61.20;;;;;;4992428;28;96130;-58
2021/12/26 09:31:09;;;;;;;12.77;3.67;;;19.20;61.20;;;;;;4991909;28;98075;-56
2021/12/26 09:33:41;;;;;;;7.23;2.67;;;19.20;61.20;;;;;;4991561;28;95484;-57
2021/12/26 09:36:13;;;;;;;11.75;2.97;;;19.20;61.30;;;;;;4996712;28;95410;-55
2021/12/26 09:38:44;;;;;;;9.80;3.40;;;19.20;61.30;;;;;;5000815;28;96394;-57
2021/12/26 09:41:16;;;;;;;7.90;2.55;;;19.20;61.40;;;;;;5004327;28;95578;-56
2021/12/26 09:43:52;;;;;;;9.10;2.58;;;19.20;61.40;;;;;;4999041;28;98032;-52
2021/12/26 09:46:22;;;;;;;6.75;2.88;;;19.20;61.40;;;;;;4996441;28;98608;-57
2021/12/26 09:48:53;;;;;;;11.70;3.67;;;19.20;61.40;;;;;;4991063;28;98151;-58
2021/12/26 09:51:25;;;;;;;9.10;2.53;;;19.20;61.50;;;;;;5003251;28;96782;-53
2021/12/26 09:53:58;;;;;;;10.27;2.75;;;19.10;61.40;;;;;;4991683;28;95459;-57
2021/12/26 09:56:32;;;;;;;11.73;2.80;;;19.10;61.50;;;;;;4997620;28;95961;-54
2021/12/26 09:59:18;;;;;;;5.88;1.77;;;19.10;61.60;;;;;;4998785;28;96759;-52
2021/12/26 10:01:56;;;;;;;5.88;2.28;;;19.10;61.60;;;;;;4994500;28;98155;-54
2021/12/26 10:04:49;;;;;;;9.90;2.33;;;19.10;61.60;;;;;;4999441;28;95230;-54
2021/12/26 10:07:26;;;;;;;9.63;2.67;;;19.10;61.60;;;;;;4999912;28;95653;-56
2021/12/26 10:09:58;;;;;;;8.02;2.17;;;19.00;61.80;;;;;;4996162;28;96489;-54
2021/12/26 10:12:40;;;;;;;8.30;2.42;;;19.00;61.80;;;;;;5001119;28;95750;-55
2021/12/26 10:15:11;;;;;;;8.73;2.42;;;19.00;61.90;;;;;;4989893;28;95839;-51
2021/12/26 10:17:45;;;;;;;6.70;2.08;;;19.00;61.90;;;;;;5000707;28;95626;-55
2021/12/26 10:20:17;;;;;;;7.50;2.60;;;19.00;62.00;;;;;;5009160;28;96005;-53
2021/12/26 10:22:49;;;;;;;9.40;2.30;;;19.00;62.10;;;;;;4993859;28;95797;-54
2021/12/26 10:25:20;;;;;;;10.85;3.15;;;19.00;62.20;;;;;;5006438;28;95680;-50
2021/12/26 10:27:50;;;;;;;6.87;2.87;;;19.00;62.20;;;;;;5009593;28;95531;-53
2021/12/26 10:30:24;;;;;;;;;;;18.90;62.10;;;;;;4991478;28;97108;-58
2021/12/26 10:32:59;;;;;;;11.63;2.47;;;18.90;62.10;;;;;;5001146;28;95904;-55
2021/12/26 10:35:30;;;;;;;7.60;2.83;;;18.90;62.10;;;;;;4990751;28;95779;-53
2021/12/26 10:38:00;;;;;;;7.75;2.03;;;18.90;62.20;;;;;;5004561;28;96323;-53
2021/12/26 10:40:31;;;;;;;8.02;2.45;;;18.90;62.10;;;;;;4989086;28;96326;-53
2021/12/26 10:43:11;;;;;;;5.20;2.13;;;18.90;62.20;;;;;;4976894;28;97732;-51
2021/12/26 10:45:42;;;;;;;8.05;2.65;;;18.90;62.20;;;;;;4984898;28;95617;-55
2021/12/26 10:48:13;;;;;;;12.63;2.45;;;18.90;62.10;;;;;;5008874;28;95908;-56
2021/12/26 10:50:43;;;;;;;8.02;2.67;;;18.90;62.20;;;;;;4991584;28;96031;-54
2021/12/26 10:53:14;;;;;;;12.60;2.40;;;18.90;62.20;;;;;;4998060;28;95910;-53
2021/12/26 10:55:55;;;;;;;9.20;2.72;;;18.90;62.30;;;;;;5016838;28;95363;-56
2021/12/26 10:58:27;;;;;;;9.45;3.17;;;18.80;62.40;;;;;;4992195;28;95273;-53
2021/12/26 11:00:59;;;;;;;10.75;2.63;;;18.80;62.30;;;;;;4988248;28;96105;-51
2021/12/26 11:03:32;;;;;;;8.05;2.55;;;18.80;62.30;;;;;;5001705;28;97009;-56
2021/12/26 11:06:12;;;;;;;10.60;2.20;;;18.80;62.30;;;;;;4993040;28;95602;-55
2021/12/26 11:08:46;;;;;;;6.68;2.20;;;18.80;62.30;;;;;;5004678;28;95805;-52
2021/12/26 11:11:23;;;;;;;11.18;3.03;;;18.70;62.40;;;;;;4996492;28;96068;-58
2021/12/26 11:14:05;;;;;;;10.57;3.30;;;18.70;62.40;;;;;;4991258;28;96513;-52
2021/12/26 11:16:40;;;;;;;10.18;2.40;;;18.70;62.60;;;;;;4984311;28;96216;-55
2021/12/26 11:19:12;;;;;;;7.38;2.45;;;18.70;62.70;;;;;;4996103;28;95716;-56
2021/12/26 11:21:43;;;;;;;9.23;2.45;;;18.70;62.50;;;;;;4994469;28;95979;-58
2021/12/26 11:24:13;;;;;;;5.07;2.25;;;18.70;62.50;;;;;;4980576;28;97777;-57
2021/12/26 11:26:43;;;;;;;8.15;2.63;;;18.60;62.60;;;;;;4998892;28;95588;-58
2021/12/26 11:29:13;;;;;;;12.80;3.17;;;18.60;62.50;;;;;;4992754;28;98203;-53
2021/12/26 11:31:43;;;;;;;8.45;2.65;;;18.60;62.50;;;;;;4979332;28;96272;-53
2021/12/26 11:34:18;;;;;;;7.90;2.33;;;18.60;62.50;;;;;;5001485;28;95462;-54
2021/12/26 11:36:52;;;;;;;10.48;2.88;;;18.60;62.70;;;;;;4995911;28;95641;-54
2021/12/26 11:39:46;;;;;;;7.78;2.00;;;18.60;62.80;;;;;;4990378;28;95195;-52
2021/12/26 11:43:21;;;;;;;8.88;3.15;;;18.60;62.80;;;;;;4969329;28;96307;-55
2021/12/26 11:46:29;;;;;;;10.02;2.70;;;18.50;62.90;;;;;;4965770;28;99392;-51
2021/12/26 11:50:01;;;;;;;10.27;3.00;;;18.50;63.10;;;;;;4991657;28;98355;-54
2021/12/26 11:53:11;;;;;;;10.43;3.40;;;18.50;63.30;;;;;;4995121;28;96047;-56
2021/12/26 11:56:15;;;;;;;6.15;1.90;;;18.50;63.40;;;;;;4990757;28;96344;-56
2021/12/26 11:58:54;;;;;;;8.43;2.25;;;18.50;64.00;;;;;;5002784;28;97178;-53
2021/12/26 12:01:27;;;;;;;6.97;2.53;;;18.40;63.30;;;;;;4987229;28;95728;-56
2021/12/26 12:04:20;;;;;;;8.68;2.47;;;18.40;63.40;;;;;;4993476;28;95874;-54
2021/12/26 12:06:54;;;;;;;10.23;2.40;;;18.40;63.40;;;;;;4998215;28;96058;-55
2021/12/26 12:09:33;;;;;;;10.50;2.30;;;18.40;64.10;;;;;;4991696;28;95817;-52
2021/12/26 12:12:12;;;;;;;8.90;2.40;;;18.40;63.50;;;;;;5006000;28;96181;-55
2021/12/26 12:14:56;;;;;;;5.25;2.08;;;18.40;63.50;;;;;;5011873;27;95791;-52
2021/12/26 12:17:31;;;;;;;10.85;2.92;;;18.30;63.70;;;;;;4988517;28;96395;-51
2021/12/26 12:20:15;;;;;;;10.35;2.72;;;18.30;63.80;;;;;;4992045;28;95895;-50
2021/12/26 12:23:09;;;;;;;8.57;2.67;;;18.30;63.90;;;;;;4989646;28;95872;-53
2021/12/26 12:25:52;;;;;;;10.68;3.03;;;18.30;63.90;;;;;;5008639;28;95781;-53
2021/12/26 12:28:41;;;;;;;8.88;2.45;;;18.30;64.10;;;;;;4983853;28;96269;-53
2021/12/26 12:31:11;;;;;;;6.70;2.40;;;18.20;64.20;;;;;;4993761;28;98445;-58
2021/12/26 12:33:42;;;;;;;6.95;2.42;;;18.30;64.20;;;;;;5002597;28;95343;-56
2021/12/26 12:36:26;;;;;;;10.15;2.35;;;18.20;64.40;;;;;;5001343;28;98033;-51
2021/12/26 12:39:17;;;;;;;10.20;2.88;;;18.20;64.60;;;;;;4997672;28;96455;-55
2021/12/26 12:41:53;;;;;;;7.68;2.13;;;18.20;64.60;;;;;;5008423;28;95825;-54
2021/12/26 12:44:44;;;;;;;7.78;2.17;;;18.20;64.70;;;;;;5000367;28;95651;-53
2021/12/26 12:47:24;;;;;;;9.27;2.83;;;18.10;64.70;;;;;;4992900;28;95324;-55
2021/12/26 12:50:03;;;;;;;8.85;2.38;;;18.10;64.60;;;;;;5004622;28;96471;-58
2021/12/26 12:52:49;;;;;;;9.40;2.67;;;18.10;64.70;;;;;;5000251;28;96059;-53
2021/12/26 12:55:47;;;;;;;6.43;2.47;;;18.10;64.80;;;;;;4990752;28;96099;-53
2021/12/26 12:58:22;;;;;;;4.97;1.83;;;18.10;64.80;;;;;;4997009;28;95537;-57
2021/12/26 13:00:53;;;;;;;8.30;2.88;;;18.10;65.10;;;;;;5008869;27;97739;-52
2021/12/26 13:03:28;;;;;;;8.52;2.30;;;18.10;65.00;;;;;;5005661;28;96092;-58
2021/12/26 13:06:10;;;;;;;6.47;2.55;;;18.10;65.10;;;;;;5002556;28;95853;-58
2021/12/26 13:08:41;;;;;;;8.05;3.03;;;18.10;65.20;;;;;;5004605;28;95768;-52
2021/12/26 13:11:17;;;;;;;6.20;2.25;;;18.00;65.10;;;;;;4993067;28;95952;-54
2021/12/26 13:13:49;;;;;;;8.68;3.28;;;18.00;65.20;;;;;;4989020;28;95664;-54
2021/12/26 13:16:29;;;;;;;7.53;2.53;;;18.00;65.10;;;;;;4993267;28;96317;-54
2021/12/26 13:19:09;;;;;;;8.77;2.55;;;18.00;65.30;;;;;;5004434;27;95849;-55
2021/12/26 13:21:40;;;;;;;8.85;2.53;;;18.00;65.40;;;;;;5004045;28;97015;-53
2021/12/26 13:24:11;;;;;;;8.88;2.72;;;18.00;65.40;;;;;;5003787;28;95682;-55
2021/12/26 13:26:44;;;;;;;6.22;2.05;;;18.00;65.40;;;;;;4992466;28;95559;-53
2021/12/26 13:29:14;;;;;;;5.72;2.15;;;18.00;65.40;;;;;;4998584;28;96013;-53
2021/12/26 13:31:44;;;;;;;6.63;2.17;;;18.00;65.60;;;;;;4978860;28;96649;-58
2021/12/26 13:34:15;;;;;;;6.78;2.05;;;18.00;65.50;;;;;;4976936;28;96319;-51